Capitol Logistics 716




MPTO
General Omar Torrijos International Airport
Panama City, PA
KMIA
Miami International Airport
Miami, US

Activity Log

Date Flight Route Aircraft Duration
01/01/2020 CPX616 TASNO UL780 URSUS FLIPR6 B763 2h 47m
10/26/2019 CPX716 TASNO UL780 URSUS FLIPR6 B763 2h 52m
07/10/2019 CPX716 XOPLI/N0468F360 UG448 IKBIX Y183 PEAKY DVALL DVALL3 B763 2h 39m
06/15/2019 CPX716 TASNO UL780 URSUS FLIPR6 B763 2h 43m
05/12/2019 CPX716 TASNO UL780 URSUS FLIPR6 B763 2h 52m
04/29/2019 CPX716 TASNO UL780 URSUS FLIPR6 B763 2h 50m
01/16/2019 CPX716 TASNO UL780 URSUS FLIPR6 B763 2h 35m

Route Details

Aircraft Information
Group: Boeing 767
Types: B762,B763
Route Data
Demand: M
Distance: 1007nm
Duration: 2h 25m
Recm'd Route: TASNO UL780 URSUS FLIPR6
Origin Wx: MPTO 270500Z VRB02KT 9999 FEW018 25/24 Q1011 NOSIG
Dest. Wx: KMIA 270453Z 10009KT 10SM FEW023 FEW070 27/22 A3006 RMK AO2 SLP179 OCNL LTGIC DSNT E CB DSNT E MOV NW T02670222 403110261 $
Notes:

Financial History
Total Freight: 646,037lbs
Average Load: 92,291lbs/flt
Fuel Used: 201,544lbs
Avg. Fuel Used: 28,792lbs/flt
Fuel Expense: $159,220
Avg. Fuel Expense: $22,746
Avg. Fuel Cost: $0.79/lbs
Total Gross Income: $1,181,096
Pilot Pay: $1,073
Total Expenses: $127,922
Total Revenue: $891,523
Average Revenue: $168,728.00